createdAt,value
2019-01-25T00:02:02.931Z,27.90
2019-01-25T00:05:26.939Z,30.88
2019-01-25T00:08:50.910Z,30.30
2019-01-25T00:12:14.878Z,34.60
2019-01-25T00:15:39.203Z,35.08
2019-01-25T00:19:03.176Z,28.90
2019-01-25T00:22:27.140Z,27.43
2019-01-25T00:25:51.449Z,32.73
2019-01-25T00:29:15.425Z,26.93
2019-01-25T00:32:39.392Z,29.83
2019-01-25T00:36:03.370Z,28.40
2019-01-25T00:39:27.356Z,31.93
2019-01-25T00:46:34.595Z,29.10
2019-01-25T00:49:49.619Z,30.43
2019-01-25T00:53:13.588Z,29.07
2019-01-25T00:56:37.566Z,23.10
2019-01-25T01:03:31.105Z,26.47
2019-01-25T01:06:55.086Z,28.80
2019-01-25T01:10:19.057Z,30.57
2019-01-25T01:13:43.031Z,25.17
2019-01-25T01:17:26.274Z,26.30
2019-01-25T01:20:50.282Z,28.25
2019-01-25T01:24:14.517Z,27.27
2019-01-25T01:27:38.488Z,34.63
2019-01-25T01:34:32.388Z,32.87
2019-01-25T01:37:56.423Z,30.33
2019-01-25T01:41:20.749Z,28.73
2019-01-25T01:44:45.036Z,26.30
2019-01-25T01:48:01.511Z,27.67
2019-01-25T01:51:25.481Z,28.50
2019-01-25T01:54:49.813Z,26.37
2019-01-25T01:58:13.780Z,29.67
2019-01-25T02:01:38.085Z,34.00
2019-01-25T02:08:31.494Z,27.53
2019-01-25T02:12:14.614Z,35.67
2019-01-25T02:15:21.674Z,33.90
2019-01-25T02:18:26.303Z,29.30
2019-01-25T02:21:31.173Z,34.23
2019-01-25T02:24:35.809Z,27.07
2019-01-25T02:27:59.790Z,35.60
2019-01-25T02:35:12.632Z,31.50
2019-01-25T02:38:36.909Z,30.23
2019-01-25T02:42:00.891Z,33.30
2019-01-25T02:45:25.286Z,37.87
2019-01-25T02:48:42.450Z,37.40
2019-01-25T02:52:06.694Z,28.30
2019-01-25T02:55:13.279Z,31.63
2019-01-25T02:58:56.549Z,28.10
2019-01-25T03:02:20.526Z,40.07
2019-01-25T03:05:44.875Z,30.48
2019-01-25T03:09:29.962Z,31.73
2019-01-25T03:12:53.944Z,34.77
2019-01-25T03:16:17.922Z,28.40
2019-01-25T03:19:41.900Z,33.30
2019-01-25T03:23:05.876Z,29.20
2019-01-25T03:26:29.867Z,29.17
2019-01-25T03:29:53.826Z,27.73
2019-01-25T03:33:18.136Z,33.53
2019-01-25T03:36:42.109Z,32.83
2019-01-25T03:40:26.865Z,28.23
2019-01-25T03:43:50.834Z,35.53
2019-01-25T03:47:07.697Z,27.77
2019-01-25T03:50:20.086Z,31.33
2019-01-25T03:53:24.719Z,24.17
2019-01-25T03:56:48.730Z,22.62
2019-01-25T04:00:33.485Z,23.70
2019-01-25T04:03:57.459Z,26.13
2019-01-25T04:07:21.429Z,22.00
2019-01-25T04:10:45.391Z,18.73
2019-01-25T04:14:09.379Z,21.00
2019-01-25T04:17:33.357Z,25.87
2019-01-25T04:20:57.390Z,18.63
2019-01-25T04:24:02.033Z,17.80
2019-01-25T04:27:26.291Z,22.47
2019-01-25T04:30:50.303Z,15.90
2019-01-25T04:34:15.283Z,23.73
2019-01-25T04:37:39.262Z,24.67
2019-01-25T04:44:46.163Z,17.93
2019-01-25T04:48:03.522Z,13.17
2019-01-25T04:55:31.216Z,15.30
2019-01-25T04:58:55.189Z,19.83
2019-01-25T05:02:19.156Z,17.27
2019-01-25T05:09:54.043Z,14.23
2019-01-25T05:17:08.568Z,13.03
2019-01-25T05:20:32.553Z,15.63
2019-01-25T05:23:56.536Z,21.23
2019-01-25T05:27:20.508Z,16.07
2019-01-25T05:31:04.092Z,14.03
2019-01-25T05:34:28.178Z,17.23
2019-01-25T05:37:52.474Z,14.13
2019-01-25T05:41:16.450Z,17.80
2019-01-25T05:44:40.433Z,17.07
2019-01-25T05:47:57.366Z,15.43
2019-01-25T05:51:21.342Z,17.23
2019-01-25T05:54:45.311Z,15.27
2019-01-25T05:58:30.065Z,23.13
2019-01-25T06:01:54.077Z,19.30
2019-01-25T06:05:18.162Z,19.00
2019-01-25T06:12:44.100Z,12.27
2019-01-25T06:16:08.415Z,15.72
2019-01-25T06:19:53.195Z,16.73
2019-01-25T06:23:17.470Z,17.20
2019-01-25T06:27:02.236Z,15.07
2019-01-25T06:30:26.250Z,14.63
2019-01-25T06:33:50.515Z,19.00
2019-01-25T06:37:14.807Z,18.33
2019-01-25T06:40:38.797Z,16.40
2019-01-25T06:44:21.865Z,15.73
2019-01-25T06:47:38.711Z,16.27
2019-01-25T06:54:34.880Z,13.88
2019-01-25T07:01:48.985Z,16.43
2019-01-25T07:05:32.086Z,14.93
2019-01-25T07:09:15.111Z,19.13
2019-01-25T07:12:39.073Z,18.30
2019-01-25T07:16:03.043Z,15.57
2019-01-25T07:23:10.062Z,17.83
2019-01-25T07:26:34.120Z,18.07
2019-01-25T07:29:51.348Z,17.63
2019-01-25T07:33:15.326Z,15.50
2019-01-25T07:36:39.580Z,17.97
2019-01-25T07:43:53.857Z,15.47
2019-01-25T07:47:10.997Z,18.13
2019-01-25T07:50:35.409Z,21.33
2019-01-25T07:53:59.672Z,26.70
2019-01-25T08:07:54.272Z,23.37
2019-01-25T08:15:01.461Z,21.27
2019-01-25T08:21:56.189Z,25.47
2019-01-25T08:25:20.622Z,24.83
2019-01-25T08:28:44.637Z,23.40
2019-01-25T08:36:31.299Z,24.57
2019-01-25T08:39:55.580Z,25.63
2019-01-25T08:43:19.555Z,24.37
2019-01-25T08:46:43.830Z,17.63
2019-01-25T08:50:28.941Z,20.63
2019-01-25T08:57:22.754Z,18.53
2019-01-25T09:00:46.799Z,20.53
2019-01-25T09:04:30.067Z,23.90
2019-01-25T09:07:54.166Z,21.47
2019-01-25T09:11:18.157Z,22.63
2019-01-25T09:14:42.140Z,23.30
2019-01-25T09:18:06.400Z,24.63
2019-01-25T09:21:11.334Z,23.77
2019-01-25T09:24:16.214Z,24.43
2019-01-25T09:27:20.844Z,20.83
2019-01-25T09:30:28.188Z,21.53
2019-01-25T09:33:32.822Z,21.67
2019-01-25T09:36:37.493Z,21.23
2019-01-25T09:40:01.733Z,21.37
2019-01-25T09:43:25.709Z,19.43
2019-01-25T09:47:08.961Z,23.67
2019-01-25T09:50:20.046Z,18.87
2019-01-25T09:53:24.932Z,21.73
2019-01-25T09:56:29.607Z,22.87
2019-01-25T09:59:34.239Z,22.83
2019-01-25T10:02:58.217Z,18.60
2019-01-25T10:06:22.199Z,22.67
2019-01-25T10:09:46.477Z,26.07
2019-01-25T10:13:10.461Z,30.43
2019-01-25T10:16:34.759Z,24.17
2019-01-25T10:20:17.775Z,21.10
2019-01-25T10:23:41.756Z,21.90
2019-01-25T10:27:06.154Z,22.23
2019-01-25T10:30:21.262Z,17.77
2019-01-25T10:33:26.208Z,20.93
2019-01-25T10:36:30.846Z,22.70
2019-01-25T10:39:35.756Z,20.70
2019-01-25T10:42:45.602Z,24.43
2019-01-25T10:45:46.812Z,26.13
2019-01-25T10:48:51.450Z,20.97
2019-01-25T10:51:56.087Z,22.67
2019-01-25T10:55:01.015Z,23.33
2019-01-25T10:58:24.992Z,20.60
2019-01-25T11:01:49.013Z,25.50
2019-01-25T11:05:33.796Z,23.75
2019-01-25T11:08:58.028Z,17.17
2019-01-25T11:12:22.074Z,24.50
2019-01-25T11:15:46.022Z,21.35
2019-01-25T11:19:10.000Z,22.73
2019-01-25T11:22:53.241Z,24.37
2019-01-25T11:26:17.520Z,20.17
2019-01-25T11:29:22.147Z,21.80
2019-01-25T11:32:26.787Z,19.73
2019-01-25T11:35:31.730Z,20.60
2019-01-25T11:38:36.372Z,20.33
2019-01-25T11:41:41.001Z,18.17
2019-01-25T11:44:45.647Z,20.50
2019-01-25T11:47:50.645Z,22.33
2019-01-25T11:50:55.291Z,15.40
2019-01-25T11:53:59.935Z,18.33
2019-01-25T11:57:23.907Z,15.00
2019-01-25T12:00:48.168Z,16.07
2019-01-25T12:11:32.571Z,13.22
2019-01-25T12:18:26.046Z,22.97
2019-01-25T12:22:09.036Z,23.77
2019-01-25T12:29:02.106Z,22.23
2019-01-25T12:32:26.119Z,20.23
2019-01-25T12:35:37.830Z,19.27
2019-01-25T12:38:42.732Z,21.80
2019-01-25T12:42:26.132Z,19.93
2019-01-25T12:45:50.401Z,16.70
2019-01-25T12:49:09.937Z,20.60
2019-01-25T12:52:34.198Z,19.73
2019-01-25T12:55:58.535Z,19.57
2019-01-25T12:59:22.880Z,21.93
2019-01-25T13:02:47.241Z,18.23
2019-01-25T13:05:52.375Z,16.10
2019-01-25T13:08:57.517Z,15.83
2019-01-25T13:12:25.236Z,20.50
2019-01-25T13:19:30.162Z,18.23
2019-01-25T13:23:13.323Z,14.43
2019-01-25T13:26:37.368Z,15.60
2019-01-25T13:30:20.369Z,16.17
2019-01-25T13:37:14.024Z,16.90
2019-01-25T13:44:22.717Z,17.10
2019-01-25T13:47:39.834Z,19.83
2019-01-25T13:51:03.888Z,20.10
2019-01-25T13:54:28.951Z,20.43
2019-01-25T14:01:43.996Z,16.80
2019-01-25T14:05:28.769Z,16.33
2019-01-25T14:12:21.952Z,20.07
2019-01-25T14:22:58.202Z,18.30
2019-01-25T14:26:22.433Z,15.43
2019-01-25T14:30:05.697Z,15.77
2019-01-25T14:33:29.670Z,14.73
2019-01-25T14:36:53.957Z,10.77
2019-01-25T14:40:18.017Z,11.93
2019-01-25T14:43:41.990Z,12.67
2019-01-25T14:46:56.951Z,11.60
2019-01-25T14:50:41.741Z,7.33
2019-01-25T14:57:56.049Z,6.83
2019-01-25T15:01:39.062Z,8.50
2019-01-25T15:08:53.626Z,11.33
2019-01-25T15:12:17.611Z,10.90
2019-01-25T15:19:31.524Z,9.77
2019-01-25T15:26:59.521Z,9.40
2019-01-25T15:30:42.819Z,8.77
2019-01-25T15:37:50.079Z,6.50
2019-01-25T15:41:14.356Z,7.63
2019-01-25T15:44:38.610Z,8.20
2019-01-25T15:47:56.215Z,6.57
2019-01-25T15:51:20.191Z,11.63
2019-01-25T15:54:25.115Z,10.20
2019-01-25T15:57:49.512Z,12.33
2019-01-25T16:01:32.621Z,9.57
2019-01-25T16:04:56.670Z,11.22
2019-01-25T16:08:20.630Z,10.97
2019-01-25T16:11:44.762Z,10.27
2019-01-25T16:15:29.839Z,9.37
2019-01-25T16:18:54.081Z,11.37
2019-01-25T16:22:18.404Z,6.70
2019-01-25T16:25:42.458Z,6.67
2019-01-25T16:29:07.194Z,7.10
2019-01-25T16:32:31.237Z,12.07
2019-01-25T16:35:55.328Z,9.78
2019-01-25T16:43:02.515Z,10.67
2019-01-25T16:46:45.786Z,9.27
2019-01-25T16:50:02.733Z,13.17
2019-01-25T16:53:26.771Z,9.93
2019-01-25T17:00:40.610Z,10.60
2019-01-25T17:11:44.852Z,7.50
2019-01-25T17:19:12.592Z,13.67
2019-01-25T17:22:36.650Z,10.43
2019-01-25T17:26:00.645Z,10.80
2019-01-25T17:29:24.962Z,18.77
2019-01-25T17:32:49.018Z,15.23
2019-01-25T17:36:13.230Z,15.87
2019-01-25T17:39:37.221Z,17.47
2019-01-25T17:43:01.259Z,20.60
2019-01-25T17:46:25.637Z,14.10
2019-01-25T17:49:42.388Z,14.17
2019-01-25T17:53:06.384Z,15.67
2019-01-25T17:56:49.465Z,12.55
2019-01-25T18:00:53.313Z,11.13
2019-01-25T18:04:17.390Z,12.10
2019-01-25T18:07:41.735Z,10.97
2019-01-25T18:11:24.943Z,12.13
2019-01-25T18:14:49.538Z,9.10
2019-01-25T18:18:14.977Z,13.97
2019-01-25T18:21:39.023Z,14.73
2019-01-25T18:25:03.005Z,13.33
2019-01-25T18:28:48.042Z,14.27
2019-01-25T18:32:12.136Z,15.57
2019-01-25T18:35:36.624Z,20.53
2019-01-25T18:46:18.815Z,8.07
2019-01-25T18:49:35.999Z,10.53
2019-01-25T18:52:59.998Z,12.07
2019-01-25T19:00:46.615Z,14.10
2019-01-25T19:04:10.858Z,17.77
2019-01-25T19:11:17.833Z,14.30
2019-01-25T19:14:49.498Z,10.47
2019-01-25T19:22:22.839Z,11.75
2019-01-25T19:29:16.604Z,11.40
2019-01-25T19:32:40.586Z,14.37
2019-01-25T19:43:24.431Z,11.87
2019-01-25T19:46:49.233Z,12.23
2019-01-25T19:50:35.096Z,14.93
2019-01-25T19:53:59.081Z,12.90
2019-01-25T19:57:23.289Z,19.33
2019-01-25T20:04:37.950Z,15.13
2019-01-25T20:08:02.706Z,13.07
2019-01-25T20:21:24.208Z,14.00
2019-01-25T20:24:48.263Z,9.57
2019-01-25T20:28:12.299Z,11.00
2019-01-25T20:31:36.440Z,15.23
2019-01-25T20:35:02.190Z,8.93
2019-01-25T20:38:26.293Z,11.17
2019-01-25T20:45:40.279Z,15.27
2019-01-25T20:48:56.925Z,16.23
2019-01-25T20:52:21.342Z,11.33
2019-01-25T20:59:54.606Z,9.50
2019-01-25T21:03:18.848Z,10.23
2019-01-25T21:06:43.430Z,11.03
2019-01-25T21:10:29.953Z,14.90
2019-01-25T21:13:54.055Z,13.97
2019-01-25T21:17:18.116Z,12.27
2019-01-25T21:21:01.683Z,9.70
2019-01-25T21:24:25.710Z,10.23
2019-01-25T21:27:50.058Z,15.47
2019-01-25T21:31:14.117Z,13.10
2019-01-25T21:34:38.583Z,15.80
2019-01-25T21:41:52.268Z,13.90
2019-01-25T21:49:00.087Z,11.43
2019-01-25T21:52:24.220Z,13.00
2019-01-25T21:55:48.297Z,12.53
2019-01-25T21:59:12.630Z,13.50
2019-01-25T22:02:36.759Z,14.43
2019-01-25T22:06:01.179Z,14.53
2019-01-25T22:09:25.534Z,15.37
2019-01-25T22:12:49.904Z,13.77
2019-01-25T22:19:43.193Z,12.90
2019-01-25T22:23:07.605Z,11.00
2019-01-25T22:26:31.671Z,11.95
2019-01-25T22:33:38.664Z,12.27
2019-01-25T22:37:02.653Z,14.20
2019-01-25T22:40:47.763Z,9.60
2019-01-25T22:44:30.992Z,14.00
2019-01-25T22:47:48.608Z,7.43
2019-01-25T22:51:12.674Z,15.25
2019-01-25T22:54:36.659Z,17.73
2019-01-25T22:58:00.952Z,10.27
2019-01-25T23:01:45.720Z,14.27
2019-01-25T23:05:48.504Z,9.23
2019-01-25T23:09:33.268Z,10.57
2019-01-25T23:12:57.243Z,10.23
2019-01-25T23:16:21.214Z,11.77
2019-01-25T23:19:45.424Z,13.80
2019-01-25T23:23:09.422Z,10.80
2019-01-25T23:26:33.386Z,12.30
2019-01-25T23:29:57.365Z,9.90
2019-01-25T23:33:21.345Z,9.33
2019-01-25T23:36:45.312Z,11.43
2019-01-25T23:43:59.985Z,10.57
2019-01-25T23:47:17.456Z,8.27
2019-01-25T23:50:41.428Z,12.60
2019-01-25T23:57:56.043Z,15.47
